createdAt,value
2018-11-26T00:00:37.565Z,2.40
2018-11-26T00:03:14.377Z,2.70
2018-11-26T00:05:47.502Z,2.60
2018-11-26T00:08:20.898Z,2.40
2018-11-26T00:11:38.266Z,2.30
2018-11-26T00:14:11.521Z,2.20
2018-11-26T00:16:45.409Z,2.50
2018-11-26T00:19:18.890Z,2.30
2018-11-26T00:21:52.242Z,2.55
2018-11-26T00:26:05.425Z,2.30
2018-11-26T00:28:39.129Z,2.45
2018-11-26T00:32:31.991Z,2.42
2018-11-26T00:35:05.427Z,2.50
2018-11-26T00:37:39.657Z,2.20
2018-11-26T00:40:14.303Z,2.50
2018-11-26T00:42:47.540Z,2.30
2018-11-26T00:45:21.000Z,2.73
2018-11-26T00:47:55.144Z,2.50
2018-11-26T00:50:28.287Z,2.60
2018-11-26T00:53:02.228Z,2.10
2018-11-26T00:55:39.097Z,2.10
2018-11-26T00:58:13.031Z,2.20
2018-11-26T01:00:46.446Z,2.00
2018-11-26T01:03:21.545Z,2.20
2018-11-26T01:05:54.439Z,2.10
2018-11-26T01:08:27.544Z,2.20
2018-11-26T01:11:00.478Z,2.40
2018-11-26T01:13:33.450Z,2.23
2018-11-26T01:16:07.056Z,2.87
2018-11-26T01:18:40.510Z,2.23
2018-11-26T01:21:13.674Z,1.90
2018-11-26T01:23:46.729Z,2.13
2018-11-26T01:26:20.569Z,2.10
2018-11-26T01:28:55.216Z,2.23
2018-11-26T01:31:28.752Z,2.00
2018-11-26T01:34:02.277Z,2.53
2018-11-26T01:36:35.675Z,2.30
2018-11-26T01:39:11.902Z,2.45
2018-11-26T01:41:47.194Z,3.02
2018-11-26T01:44:20.598Z,2.25
2018-11-26T01:46:54.926Z,2.00
2018-11-26T01:49:29.258Z,1.95
2018-11-26T01:52:03.276Z,2.20
2018-11-26T01:54:37.181Z,2.30
2018-11-26T01:57:10.774Z,2.90
2018-11-26T01:59:44.388Z,2.00
2018-11-26T02:02:18.052Z,2.30
2018-11-26T02:04:51.964Z,2.30
2018-11-26T02:07:25.670Z,2.40
2018-11-26T02:09:59.567Z,2.07
2018-11-26T02:12:33.457Z,2.27
2018-11-26T02:15:07.057Z,2.40
2018-11-26T02:17:41.013Z,2.37
2018-11-26T02:20:15.085Z,2.30
2018-11-26T02:22:49.069Z,2.40
2018-11-26T02:25:23.036Z,2.33
2018-11-26T02:27:57.064Z,2.80
2018-11-26T02:30:30.338Z,2.90
2018-11-26T02:33:04.024Z,2.70
2018-11-26T02:35:37.566Z,2.20
2018-11-26T02:38:11.470Z,2.67
2018-11-26T02:40:45.293Z,3.13
2018-11-26T02:43:19.049Z,2.70
2018-11-26T02:45:53.085Z,3.03
2018-11-26T02:48:27.069Z,3.72
2018-11-26T02:51:00.946Z,2.60
2018-11-26T02:53:34.659Z,2.73
2018-11-26T02:56:08.353Z,3.20
2018-11-26T02:58:42.085Z,2.70
2018-11-26T03:01:17.044Z,2.87
2018-11-26T03:03:50.851Z,3.37
2018-11-26T03:06:24.322Z,3.10
2018-11-26T03:08:58.163Z,2.93
2018-11-26T03:11:32.589Z,3.30
2018-11-26T03:14:06.437Z,3.77
2018-11-26T03:16:39.947Z,3.27
2018-11-26T03:19:13.038Z,3.80
2018-11-26T03:23:17.596Z,3.70
2018-11-26T03:25:51.093Z,5.47
2018-11-26T03:28:24.491Z,12.20
2018-11-26T03:30:57.597Z,12.97
2018-11-26T03:33:30.513Z,9.33
2018-11-26T03:36:04.706Z,10.67
2018-11-26T03:38:47.602Z,12.40
2018-11-26T03:41:21.108Z,10.70
2018-11-26T03:43:54.492Z,9.85
2018-11-26T03:46:27.657Z,8.60
2018-11-26T03:49:01.117Z,8.50
2018-11-26T03:51:34.501Z,8.63
2018-11-26T03:54:08.069Z,10.40
2018-11-26T03:59:13.159Z,8.27
2018-11-26T04:01:46.952Z,10.10
2018-11-26T04:06:51.608Z,7.70
2018-11-26T04:09:24.680Z,7.67
2018-11-26T04:11:57.954Z,7.30
2018-11-26T04:14:31.214Z,6.83
2018-11-26T04:17:08.612Z,6.73
2018-11-26T04:19:41.609Z,6.40
2018-11-26T04:22:15.338Z,8.17
2018-11-26T04:24:48.544Z,7.17
2018-11-26T04:27:21.521Z,7.20
2018-11-26T04:29:54.972Z,6.75
2018-11-26T04:32:28.014Z,7.57
2018-11-26T04:35:01.081Z,6.30
2018-11-26T04:37:34.510Z,7.10
2018-11-26T04:40:08.282Z,7.43
2018-11-26T04:42:42.090Z,7.55
2018-11-26T04:45:15.337Z,8.53
2018-11-26T04:48:30.125Z,7.03
2018-11-26T04:51:05.093Z,6.73
2018-11-26T04:53:38.216Z,6.23
2018-11-26T04:56:11.537Z,6.22
2018-11-26T04:58:44.626Z,8.47
2018-11-26T05:01:18.344Z,7.80
2018-11-26T05:03:52.136Z,5.93
2018-11-26T05:06:26.065Z,6.83
2018-11-26T05:08:59.104Z,6.90
2018-11-26T05:11:32.632Z,6.97
2018-11-26T05:14:06.066Z,7.97
2018-11-26T05:16:39.138Z,6.90
2018-11-26T05:19:12.157Z,6.23
2018-11-26T05:21:45.351Z,6.60
2018-11-26T05:24:18.558Z,6.23
2018-11-26T05:26:52.045Z,6.80
2018-11-26T05:29:25.137Z,6.67
2018-11-26T05:31:58.529Z,7.40
2018-11-26T05:34:31.852Z,7.67
2018-11-26T05:37:05.105Z,8.00
2018-11-26T05:42:10.010Z,7.35
2018-11-26T05:44:44.107Z,7.22
2018-11-26T05:47:17.846Z,5.77
2018-11-26T05:49:51.984Z,6.70
2018-11-26T05:52:25.073Z,6.87
2018-11-26T05:54:58.538Z,5.90
2018-11-26T05:57:31.646Z,7.17
2018-11-26T06:00:04.649Z,7.10
2018-11-26T06:02:38.174Z,6.00
2018-11-26T06:05:11.563Z,6.55
2018-11-26T06:07:45.112Z,7.17
2018-11-26T06:10:19.717Z,6.50
2018-11-26T06:12:53.211Z,6.57
2018-11-26T06:15:27.167Z,6.57
2018-11-26T06:18:56.664Z,6.97
2018-11-26T06:21:30.113Z,6.77
2018-11-26T06:24:03.860Z,6.63
2018-11-26T06:26:37.076Z,5.63
2018-11-26T06:29:10.334Z,8.17
2018-11-26T06:31:43.929Z,6.47
2018-11-26T06:35:36.409Z,6.05
2018-11-26T06:38:10.029Z,6.07
2018-11-26T06:40:43.149Z,6.20
2018-11-26T06:43:17.435Z,7.40
2018-11-26T06:48:21.373Z,6.23
2018-11-26T06:50:55.154Z,5.35
2018-11-26T06:56:22.054Z,5.80
2018-11-26T06:58:56.258Z,8.43
2018-11-26T07:01:29.578Z,6.07
2018-11-26T07:04:02.674Z,6.83
2018-11-26T07:06:36.130Z,5.60
2018-11-26T07:09:10.729Z,5.80
2018-11-26T07:11:44.129Z,5.73
2018-11-26T07:14:17.561Z,6.17
2018-11-26T07:18:56.674Z,6.70
2018-11-26T07:21:30.119Z,6.08
2018-11-26T07:24:03.561Z,5.50
2018-11-26T07:26:37.141Z,5.73
2018-11-26T07:29:10.276Z,6.43
2018-11-26T07:31:43.377Z,6.30
2018-11-26T07:34:17.150Z,6.45
2018-11-26T07:36:50.386Z,5.25
2018-11-26T07:39:23.692Z,5.73
2018-11-26T07:41:57.180Z,5.87
2018-11-26T07:44:31.155Z,5.20
2018-11-26T07:47:04.691Z,4.92
2018-11-26T07:49:37.916Z,5.80
2018-11-26T07:52:11.146Z,6.73
2018-11-26T07:54:44.492Z,7.03
2018-11-26T07:57:17.693Z,6.17
2018-11-26T07:59:51.403Z,5.20
2018-11-26T08:02:24.601Z,6.23
2018-11-26T08:04:58.109Z,6.17
2018-11-26T08:07:31.181Z,5.90
2018-11-26T08:10:04.698Z,5.47
2018-11-26T08:12:38.681Z,6.60
2018-11-26T08:15:18.448Z,6.08
2018-11-26T08:17:52.899Z,6.07
2018-11-26T08:22:59.078Z,9.25
2018-11-26T08:25:33.073Z,5.97
2018-11-26T08:28:06.717Z,5.97
2018-11-26T08:30:40.305Z,6.43
2018-11-26T08:33:13.585Z,5.20
2018-11-26T08:35:47.696Z,6.13
2018-11-26T08:38:30.387Z,6.45
2018-11-26T08:41:11.005Z,4.78
2018-11-26T08:43:49.567Z,5.43
2018-11-26T08:46:27.752Z,5.30
2018-11-26T08:49:05.126Z,6.03
2018-11-26T08:51:39.013Z,4.97
2018-11-26T08:54:12.452Z,5.00
2018-11-26T08:56:46.597Z,4.53
2018-11-26T08:59:20.324Z,4.63
2018-11-26T09:01:57.486Z,4.57
2018-11-26T09:04:34.318Z,4.90
2018-11-26T09:07:08.130Z,5.40
2018-11-26T09:09:41.617Z,4.60
2018-11-26T09:12:15.205Z,4.83
2018-11-26T09:14:48.665Z,5.37
2018-11-26T09:17:22.337Z,4.08
2018-11-26T09:19:56.139Z,4.17
2018-11-26T09:22:29.919Z,4.23
2018-11-26T09:25:03.608Z,4.17
2018-11-26T09:27:37.483Z,4.53
2018-11-26T09:30:15.168Z,3.93
2018-11-26T09:32:49.188Z,4.17
2018-11-26T09:35:22.818Z,3.95
2018-11-26T09:37:56.468Z,4.07
2018-11-26T09:40:30.449Z,4.67
2018-11-26T09:43:04.067Z,3.93
2018-11-26T09:45:40.405Z,3.80
2018-11-26T09:48:11.784Z,4.13
2018-11-26T09:50:46.176Z,3.50
2018-11-26T09:53:19.806Z,3.87
2018-11-26T09:55:53.780Z,3.90
2018-11-26T09:58:27.621Z,3.80
2018-11-26T10:01:01.524Z,3.30
2018-11-26T10:03:35.213Z,3.57
2018-11-26T10:06:09.246Z,3.50
2018-11-26T10:08:42.615Z,3.83
2018-11-26T10:11:16.332Z,3.50
2018-11-26T10:13:50.294Z,3.40
2018-11-26T10:16:24.192Z,3.17
2018-11-26T10:18:58.072Z,3.80
2018-11-26T10:21:31.485Z,2.97
2018-11-26T10:24:05.221Z,3.10
2018-11-26T10:26:39.197Z,2.90
2018-11-26T10:29:13.253Z,2.67
2018-11-26T10:31:47.225Z,2.95
2018-11-26T10:34:21.734Z,3.47
2018-11-26T10:36:55.777Z,3.10
2018-11-26T10:39:29.774Z,3.07
2018-11-26T10:42:03.810Z,3.10
2018-11-26T10:44:37.306Z,2.80
2018-11-26T10:47:10.622Z,2.90
2018-11-26T10:50:40.043Z,2.70
2018-11-26T10:53:14.121Z,2.90
2018-11-26T10:55:48.202Z,2.60
2018-11-26T10:58:22.309Z,3.23
2018-11-26T11:01:00.481Z,2.83
2018-11-26T11:03:34.368Z,2.67
2018-11-26T11:06:07.836Z,2.73
2018-11-26T11:08:41.263Z,3.00
2018-11-26T11:11:14.465Z,2.77
2018-11-26T11:13:48.201Z,3.93
2018-11-26T11:16:22.148Z,2.47
2018-11-26T11:18:56.329Z,2.70
2018-11-26T11:21:30.264Z,2.72
2018-11-26T11:24:03.743Z,2.40
2018-11-26T11:26:37.465Z,2.57
2018-11-26T11:29:11.127Z,3.10
2018-11-26T11:34:16.753Z,3.00
2018-11-26T11:36:50.760Z,2.30
2018-11-26T11:39:24.242Z,2.75
2018-11-26T11:41:58.150Z,2.73
2018-11-26T11:44:31.838Z,2.80
2018-11-26T11:47:05.240Z,2.70
2018-11-26T11:49:38.845Z,2.43
2018-11-26T11:52:12.478Z,2.30
2018-11-26T11:54:46.238Z,3.60
2018-11-26T11:57:20.099Z,2.60
2018-11-26T11:59:53.762Z,2.67
2018-11-26T12:02:27.662Z,2.50
2018-11-26T12:05:01.474Z,2.43
2018-11-26T12:07:34.952Z,2.40
2018-11-26T12:10:08.823Z,2.50
2018-11-26T12:12:42.259Z,2.60
2018-11-26T12:15:19.383Z,2.20
2018-11-26T12:17:53.255Z,2.50
2018-11-26T12:20:27.246Z,2.10
2018-11-26T12:23:00.822Z,1.90
2018-11-26T12:25:34.493Z,2.23
2018-11-26T12:28:08.838Z,2.33
2018-11-26T12:30:44.562Z,2.30
2018-11-26T12:33:18.266Z,2.20
2018-11-26T12:35:51.581Z,2.10
2018-11-26T12:38:25.288Z,3.30
2018-11-26T12:40:58.844Z,2.80
2018-11-26T12:43:32.662Z,2.30
2018-11-26T12:46:06.717Z,2.10
2018-11-26T12:48:40.680Z,2.40
2018-11-26T12:51:14.362Z,2.20
2018-11-26T12:53:48.271Z,2.02
2018-11-26T12:56:21.825Z,1.93
2018-11-26T12:58:55.518Z,2.20
2018-11-26T13:01:29.282Z,2.60
2018-11-26T13:04:03.278Z,2.20
2018-11-26T13:06:36.517Z,2.10
2018-11-26T13:09:11.269Z,2.10
2018-11-26T13:11:45.354Z,2.37
2018-11-26T13:14:18.790Z,2.03
2018-11-26T13:16:52.509Z,2.30
2018-11-26T13:19:25.745Z,2.23
2018-11-26T13:21:59.246Z,1.90
2018-11-26T13:24:33.254Z,2.10
2018-11-26T13:27:07.279Z,2.47
2018-11-26T13:29:40.845Z,2.20
2018-11-26T13:34:25.505Z,2.20
2018-11-26T13:36:59.247Z,2.02
2018-11-26T13:39:33.263Z,2.10
2018-11-26T13:42:07.233Z,1.85
2018-11-26T13:44:40.690Z,2.00
2018-11-26T13:47:14.590Z,2.10
2018-11-26T13:49:48.697Z,2.12
2018-11-26T13:52:22.694Z,2.20
2018-11-26T13:54:56.422Z,2.77
2018-11-26T13:57:30.290Z,2.02
2018-11-26T14:00:04.010Z,3.40
2018-11-26T14:02:37.511Z,2.00
2018-11-26T14:05:12.292Z,1.90
2018-11-26T14:07:45.699Z,1.97
2018-11-26T14:10:21.266Z,2.20
2018-11-26T14:12:59.526Z,2.00
2018-11-26T14:15:33.291Z,2.37
2018-11-26T14:18:06.555Z,2.20
2018-11-26T14:20:40.423Z,1.90
2018-11-26T14:23:13.925Z,2.10
2018-11-26T14:25:47.704Z,2.10
2018-11-26T14:28:21.554Z,1.82
2018-11-26T14:30:55.286Z,1.97
2018-11-26T14:33:29.310Z,2.13
2018-11-26T14:36:03.351Z,2.50
2018-11-26T14:38:37.170Z,2.00
2018-11-26T14:41:10.535Z,2.23
2018-11-26T14:43:44.269Z,1.70
2018-11-26T14:46:18.148Z,2.33
2018-11-26T14:48:52.291Z,1.87
2018-11-26T14:51:26.707Z,2.08
2018-11-26T14:54:00.710Z,2.07
2018-11-26T14:56:34.196Z,1.90
2018-11-26T14:59:07.914Z,2.03
2018-11-26T15:01:41.732Z,1.90
2018-11-26T15:04:15.337Z,2.00
2018-11-26T15:06:49.192Z,1.90
2018-11-26T15:09:22.879Z,1.73
2018-11-26T15:11:56.828Z,2.10
2018-11-26T15:14:30.347Z,2.23
2018-11-26T15:17:04.386Z,2.17
2018-11-26T15:19:38.302Z,1.70
2018-11-26T15:22:11.833Z,2.03
2018-11-26T15:24:45.402Z,1.70
2018-11-26T15:27:19.196Z,2.50
2018-11-26T15:29:52.887Z,1.93
2018-11-26T15:32:26.605Z,1.93
2018-11-26T15:35:00.723Z,2.27
2018-11-26T15:37:34.442Z,2.40
2018-11-26T15:40:08.554Z,2.05
2018-11-26T15:42:42.390Z,1.90
2018-11-26T15:45:21.307Z,1.97
2018-11-26T15:47:55.606Z,1.63
2018-11-26T15:50:29.558Z,1.77
2018-11-26T15:53:03.300Z,1.90
2018-11-26T15:55:37.330Z,1.83
2018-11-26T15:58:11.838Z,2.03
2018-11-26T16:00:45.438Z,2.35
2018-11-26T16:03:19.354Z,3.00
2018-11-26T16:05:52.845Z,2.35
2018-11-26T16:08:26.753Z,2.30
2018-11-26T16:11:00.567Z,1.70
2018-11-26T16:13:34.293Z,2.03
2018-11-26T16:16:07.919Z,2.02
2018-11-26T16:18:41.737Z,1.90
2018-11-26T16:21:15.327Z,1.83
2018-11-26T16:23:49.406Z,1.70
2018-11-26T16:26:22.970Z,1.90
2018-11-26T16:28:56.438Z,1.70
2018-11-26T16:31:30.387Z,2.30
2018-11-26T16:34:03.749Z,2.53
2018-11-26T16:36:37.585Z,2.10
2018-11-26T16:39:11.944Z,2.10
2018-11-26T16:41:45.746Z,2.33
2018-11-26T16:44:19.360Z,1.90
2018-11-26T16:46:53.358Z,4.45
2018-11-26T16:49:26.861Z,2.70
2018-11-26T16:52:00.579Z,2.72
2018-11-26T16:54:34.247Z,2.30
2018-11-26T16:57:07.905Z,2.50
2018-11-26T16:59:41.591Z,3.20
2018-11-26T17:02:15.478Z,4.27
2018-11-26T17:04:49.307Z,3.93
2018-11-26T17:07:23.383Z,2.80
2018-11-26T17:09:57.127Z,3.70
2018-11-26T17:12:30.774Z,2.90
2018-11-26T17:15:04.586Z,4.40
2018-11-26T17:17:38.315Z,2.97
2018-11-26T17:20:13.354Z,3.85
2018-11-26T17:22:47.338Z,2.90
2018-11-26T17:25:21.342Z,3.27
2018-11-26T17:27:55.366Z,3.30
2018-11-26T17:30:30.319Z,3.60
2018-11-26T17:33:04.785Z,3.43
2018-11-26T17:35:38.446Z,2.93
2018-11-26T17:38:12.334Z,5.65
2018-11-26T17:40:46.086Z,4.13
2018-11-26T17:43:20.372Z,3.00
2018-11-26T17:45:54.371Z,4.37
2018-11-26T17:48:28.599Z,3.10
2018-11-26T17:51:02.470Z,4.47
2018-11-26T17:53:37.168Z,5.30
2018-11-26T17:56:11.012Z,5.00
2018-11-26T17:58:44.510Z,4.40
2018-11-26T18:01:22.884Z,6.17
2018-11-26T18:03:56.886Z,4.10
2018-11-26T18:06:30.626Z,5.87
2018-11-26T18:09:05.336Z,4.23
2018-11-26T18:11:38.908Z,5.03
2018-11-26T18:14:12.784Z,4.73
2018-11-26T18:16:46.250Z,5.53
2018-11-26T18:19:20.341Z,6.22
2018-11-26T18:21:53.398Z,6.13
2018-11-26T18:24:26.891Z,6.90
2018-11-26T18:27:00.378Z,8.73
2018-11-26T18:29:34.235Z,9.33
2018-11-26T18:32:07.609Z,8.80
2018-11-26T18:34:41.399Z,8.13
2018-11-26T18:37:14.663Z,8.30
2018-11-26T18:39:47.802Z,8.90
2018-11-26T18:42:21.643Z,8.43
2018-11-26T18:44:55.054Z,8.80
2018-11-26T18:47:28.221Z,8.67
2018-11-26T18:50:01.652Z,9.30
2018-11-26T18:52:35.389Z,9.47
2018-11-26T18:55:09.677Z,7.20
2018-11-26T18:57:43.653Z,9.07
2018-11-26T19:00:19.684Z,8.87
2018-11-26T19:02:53.390Z,9.53
2018-11-26T19:05:26.903Z,8.67
2018-11-26T19:08:00.413Z,12.10
2018-11-26T19:10:36.362Z,7.65
2018-11-26T19:13:14.904Z,8.05
2018-11-26T19:15:49.623Z,7.73
2018-11-26T19:18:25.278Z,7.40
2018-11-26T19:20:58.628Z,9.10
2018-11-26T19:23:31.966Z,9.03
2018-11-26T19:26:05.629Z,7.20
2018-11-26T19:28:39.386Z,11.47
2018-11-26T19:31:12.802Z,9.60
2018-11-26T19:33:46.315Z,9.77
2018-11-26T19:36:20.281Z,8.50
2018-11-26T19:38:53.407Z,9.07
2018-11-26T19:41:27.509Z,9.53
2018-11-26T19:44:01.641Z,8.90
2018-11-26T19:46:35.395Z,8.77
2018-11-26T19:49:09.008Z,8.97
2018-11-26T19:51:42.461Z,8.87
2018-11-26T19:54:16.739Z,8.90
2018-11-26T19:56:50.426Z,8.35
2018-11-26T19:59:24.409Z,9.30
2018-11-26T20:01:58.268Z,7.70
2018-11-26T20:04:39.440Z,8.35
2018-11-26T20:09:45.957Z,8.05
2018-11-26T20:12:18.845Z,9.10
2018-11-26T20:14:52.650Z,8.83
2018-11-26T20:17:26.381Z,9.33
2018-11-26T20:20:00.027Z,8.53
2018-11-26T20:22:33.722Z,9.53
2018-11-26T20:25:08.418Z,7.13
2018-11-26T20:27:42.141Z,8.50
2018-11-26T20:30:18.295Z,8.17
2018-11-26T20:32:52.256Z,8.73
2018-11-26T20:35:26.001Z,8.40
2018-11-26T20:37:58.999Z,7.80
2018-11-26T20:45:30.835Z,8.15
2018-11-26T20:50:53.841Z,8.93
2018-11-26T20:53:29.366Z,8.53
2018-11-26T20:56:03.631Z,9.28
2018-11-26T20:58:37.421Z,7.60
2018-11-26T21:01:11.498Z,7.87
2018-11-26T21:06:16.845Z,7.23
2018-11-26T21:08:50.412Z,7.20
2018-11-26T21:11:24.130Z,8.35
2018-11-26T21:13:58.439Z,7.63
2018-11-26T21:16:32.545Z,6.50
2018-11-26T21:19:06.072Z,7.70
2018-11-26T21:21:40.419Z,8.28
2018-11-26T21:24:13.951Z,6.75
2018-11-26T21:26:47.386Z,7.03
2018-11-26T21:29:20.953Z,7.07
2018-11-26T21:31:53.859Z,6.60
2018-11-26T21:34:28.011Z,7.37
2018-11-26T21:37:01.669Z,6.77
2018-11-26T21:39:35.812Z,6.73
2018-11-26T21:42:09.544Z,6.27
2018-11-26T21:44:42.858Z,5.87
2018-11-26T21:47:16.628Z,7.30
2018-11-26T21:49:50.849Z,6.37
2018-11-26T21:52:23.871Z,6.35
2018-11-26T21:54:57.427Z,5.67
2018-11-26T21:57:30.888Z,6.30
2018-11-26T22:00:04.858Z,6.40
2018-11-26T22:02:38.451Z,5.47
2018-11-26T22:05:11.683Z,5.63
2018-11-26T22:07:45.446Z,5.90
2018-11-26T22:10:21.434Z,6.10
2018-11-26T22:12:57.442Z,6.05
2018-11-26T22:15:31.411Z,7.80
2018-11-26T22:18:05.029Z,6.90
2018-11-26T22:20:38.693Z,6.60
2018-11-26T22:23:12.694Z,6.07
2018-11-26T22:28:23.628Z,5.33
2018-11-26T22:30:57.491Z,5.23
2018-11-26T22:33:30.474Z,6.00
2018-11-26T22:36:04.539Z,6.33
2018-11-26T22:38:38.586Z,5.07
2018-11-26T22:41:12.451Z,5.47
2018-11-26T22:43:45.975Z,5.10
2018-11-26T22:46:19.446Z,5.13
2018-11-26T22:48:53.043Z,4.95
2018-11-26T22:51:26.232Z,4.97
2018-11-26T22:54:00.090Z,4.60
2018-11-26T22:56:33.712Z,5.10
2018-11-26T22:59:07.438Z,5.87
2018-11-26T23:01:41.388Z,4.90
2018-11-26T23:04:15.272Z,4.33
2018-11-26T23:06:48.422Z,5.30
2018-11-26T23:09:21.505Z,4.80
2018-11-26T23:11:54.894Z,4.37
2018-11-26T23:14:28.582Z,4.83
2018-11-26T23:17:02.475Z,4.53
2018-11-26T23:19:36.530Z,4.53
2018-11-26T23:22:10.882Z,5.90
2018-11-26T23:24:44.883Z,3.97
2018-11-26T23:27:18.718Z,4.00
2018-11-26T23:29:52.554Z,4.37
2018-11-26T23:32:26.494Z,4.20
2018-11-26T23:35:00.541Z,4.00
2018-11-26T23:37:34.054Z,4.70
2018-11-26T23:40:09.131Z,4.42
2018-11-26T23:42:42.530Z,3.60
2018-11-26T23:45:17.350Z,3.50
2018-11-26T23:47:51.001Z,4.10
2018-11-26T23:50:24.727Z,4.27
2018-11-26T23:52:58.352Z,3.90
2018-11-26T23:55:32.098Z,4.10
2018-11-26T23:58:06.233Z,3.70
